Disclaimer

Please do not use the information listed here in-flight or in-navigation, as they are not provided to us by the airports but are provided by volunteers, so they might be outdated.

Search


Regions


Airport information page

Radio informations:
Tower (TWR) - 122.1 MHz
RADAR - 123.3 MHz
HANNOVER DIR - 131.325 MHz

Airport informations:
Latitude: 52° 27' 26.40" N
Longitude: 009° 25' 37.80" E
Elevation: 187 feet - 57 meters
Operating hours: Remarks
Operating agency: Military
Timezone: UTC+1(+2DT) - Last Sunday in March to last Sunday in October
Fuel: JP-8, SemiKeroscene MIL Spec T-83133, without icing inhibitor

100/130 MIL Spec, low lead, aviation gasoline (BLUE)

Runway information:
03/21 - 5573 x 156 feet< - >1699 x 48 meters
08/26 - 6157 x 153 feet< - >1877 x 47 meters
08R/26L - 3569 x 132 feet< - >1088 x 40 meters

Recent METARs:
ETNW 160920Z AUTO 13011KT 9999 // ////// M00/M05 Q1013 ///
ETNW 160920Z AUTO 13011KT 9999 // ////// M00/M05 Q1013 ///
ETNW 161020Z AUTO 14009KT 9999 // ////// M00/M05 Q1012 ///

Airport on the map: